.
WxDataArchive / Data Records for 2007-11-16
2007-11-15 November 2007 2007-11-17

Data Records for Friday, 16 November 2007

Time	Temp	Chill	HIndex	Humid	Dewpt	 Wind 	HiWind	WindDir	Rain 	Barom 
-----	----	-----	------	-----	-----	------	------	-------	-----	----- 
00:00	35.2	35.2	35.2	63	23.9	1	3	248	0.00	30.066 
00:05	35.2	35.2	35.2	63	23.9	1	4	248	0.00	30.064 
00:10	35.2	35.2	35.2	63	23.9	1	3	248	0.00	30.065 
00:15	35.2	35.2	35.2	63	23.9	1	3	248	0.00	30.065 
00:20	35.2	35.2	35.2	64	24.3	0	1	338	0.00	30.064 
00:25	35.2	35.2	35.2	63	23.9	1	3	248	0.00	30.062 
00:30	35.2	35.2	35.2	63	23.9	0	2	248	0.00	30.062 
00:35	35.2	35.2	35.2	63	23.9	0	1	248	0.00	30.059 
00:40	35.2	35.2	35.2	63	23.9	1	3	248	0.00	30.058 
00:45	35.2	35.2	35.2	64	24.3	1	3	270	0.00	30.057 
00:50	35.2	35.2	35.2	64	24.3	0	3	270	0.00	30.055 
00:55	35.0	35.0	35.0	63	23.7	0	2	248	0.00	30.054 
01:00	35.0	35.0	35.0	64	24.1	0	4	248	0.00	30.053 
01:05	35.0	35.0	35.0	64	24.1	0	2	248	0.00	30.053 
01:10	35.0	35.0	35.0	64	24.1	0	2	248	0.00	30.052 
01:15	34.9	34.9	34.9	64	24.0	0	1	248	0.00	30.053 
01:20	34.9	34.9	34.9	64	24.0	0	1	248	0.00	30.053 
01:25	35.0	35.0	35.0	64	24.1	0	2	248	0.00	30.052 
01:30	35.0	35.0	35.0	64	24.1	1	4	248	0.00	30.050 
01:35	35.0	35.0	35.0	64	24.1	1	4	248	0.00	30.050 
01:40	35.0	35.0	35.0	63	23.7	1	2	248	0.00	30.047 
01:45	35.0	35.0	35.0	64	24.1	0	1	270	0.00	30.047 
01:50	34.9	34.9	34.9	64	24.0	1	4	248	0.00	30.048 
01:55	34.9	34.9	34.9	63	23.6	0	2	248	0.00	30.048 
02:00	34.9	34.9	34.9	64	24.0	0	2	270	0.00	30.049 
02:05	34.9	34.9	34.9	64	24.0	1	3	248	0.00	30.051 
02:10	34.9	34.9	34.9	65	24.3	0	1	248	0.00	30.051 
02:15	34.9	34.9	34.9	64	24.0	1	3	270	0.00	30.050 
02:20	34.9	34.9	34.9	65	24.3	0	2	270	0.00	30.051 
02:25	34.7	34.7	34.7	64	23.8	0	2	270	0.00	30.051 
02:30	34.7	34.7	34.7	64	23.8	1	2	270	0.00	30.051 
02:35	34.7	34.7	34.7	64	23.8	0	2	270	0.00	30.052 
02:40	34.7	34.7	34.7	64	23.8	1	3	270	0.00	30.052 
02:45	34.7	34.7	34.7	64	23.8	0	2	270	0.00	30.052 
02:50	34.7	34.7	34.7	65	24.2	0	2	248	0.00	30.052 
02:55	34.7	34.7	34.7	65	24.2	1	3	248	0.00	30.054 
03:00	34.6	34.6	34.6	65	24.1	0	2	248	0.00	30.052 
03:05	34.6	34.6	34.6	65	24.1	0	2	248	0.00	30.053 
03:10	34.4	34.4	34.4	65	23.9	0	2	248	0.00	30.053 
03:15	34.4	34.4	34.4	66	24.2	1	2	248	0.00	30.054 
03:20	34.4	34.4	34.4	66	24.2	0	2	248	0.00	30.055 
03:25	34.4	34.4	34.4	66	24.2	1	3	248	0.00	30.054 
03:30	34.4	34.4	34.4	66	24.2	1	3	270	0.00	30.053 
03:35	34.4	34.4	34.4	66	24.2	1	2	270	0.00	30.054 
03:40	34.4	34.4	34.4	66	24.2	1	2	270	0.00	30.056 
03:45	34.4	34.4	34.4	66	24.2	1	4	270	0.00	30.055 
03:50	34.4	34.4	34.4	66	24.2	0	2	225	0.00	30.055 
03:55	34.3	34.3	34.3	66	24.1	1	3	248	0.00	30.056 
04:00	34.3	34.3	34.3	66	24.1	0	2	248	0.00	30.058 
04:05	34.3	34.3	34.3	66	24.1	1	2	270	0.00	30.060 
04:10	34.3	34.3	34.3	65	23.8	1	2	248	0.00	30.060 
04:15	34.3	34.3	34.3	66	24.1	1	2	292	0.00	30.064 
04:20	34.3	34.3	34.3	66	24.1	1	3	270	0.00	30.062 
04:25	34.3	34.3	34.3	66	24.1	1	5	248	0.00	30.058 
04:30	34.1	34.1	34.1	65	23.6	1	4	248	0.00	30.056 
04:35	34.1	34.1	34.1	66	23.9	0	3	270	0.00	30.055 
04:40	34.1	34.1	34.1	65	23.6	1	5	270	0.00	30.056 
04:45	34.0	34.0	34.0	65	23.5	1	2	270	0.00	30.055 
04:50	34.0	34.0	34.0	66	23.9	0	2	248	0.00	30.056 
04:55	33.8	33.8	33.8	66	23.7	0	4	248	0.00	30.059 
05:00	33.8	33.8	33.8	66	23.7	0	2	248	0.00	30.061 
05:05	33.8	33.8	33.8	66	23.7	0	4	248	0.00	30.061 
05:10	33.8	33.8	33.8	66	23.7	0	2	248	0.00	30.060 
05:15	33.8	33.8	33.8	66	23.7	0	1	248	0.00	30.057 
05:20	33.7	33.7	33.7	67	23.9	0	1	248	0.00	30.056 
05:25	33.5	33.5	33.5	67	23.7	0	3	248	0.00	30.057 
05:30	33.5	33.5	33.5	67	23.7	1	3	248	0.00	30.056 
05:35	33.4	33.4	33.4	67	23.6	1	2	248	0.00	30.059 
05:40	33.2	33.2	33.2	67	23.4	1	3	248	0.00	30.061 
05:45	33.2	33.2	33.2	68	23.8	1	2	248	0.00	30.061 
05:50	33.1	33.1	33.1	68	23.7	1	3	248	0.00	30.058 
05:55	32.9	32.9	32.9	69	23.9	0	2	248	0.00	30.057 
06:00	32.8	32.8	32.8	69	23.8	1	4	248	0.00	30.058 
06:05	32.7	32.7	32.7	69	23.7	0	3	248	0.00	30.060 
06:10	32.7	32.7	32.7	69	23.7	1	3	248	0.00	30.058 
06:15	32.5	32.5	32.5	69	23.5	0	2	248	0.00	30.060 
06:20	32.4	32.4	32.4	69	23.4	0	1	248	0.00	30.059 
06:25	32.2	32.2	32.2	70	23.5	0	2	248	0.00	30.059 
06:30	32.2	32.2	32.2	70	23.5	0	1	248	0.00	30.063 
06:35	32.1	32.1	32.1	70	23.4	1	3	248	0.00	30.061 
06:40	31.9	31.9	31.9	71	23.6	0	3	248	0.00	30.060 
06:45	31.8	31.8	31.8	71	23.5	1	4	248	0.00	30.061 
06:50	31.8	31.8	31.8	71	23.5	1	3	248	0.00	30.063 
06:55	31.6	31.6	31.6	71	23.3	1	4	248	0.00	30.064 
07:00	31.5	31.5	31.5	72	23.5	1	4	248	0.00	30.064 
07:05	31.5	31.5	31.5	72	23.5	0	4	248	0.00	30.069 
07:10	31.3	31.3	31.3	72	23.3	0	1	248	0.00	30.065 
07:15	31.2	31.2	31.2	73	23.6	0	2	248	0.00	30.063 
07:20	31.0	31.0	31.0	73	23.4	0	1	248	0.00	30.060 
07:25	30.9	30.9	30.9	73	23.3	0	1	248	0.00	30.058 
07:30	30.7	30.7	30.7	73	23.1	0	2	248	0.00	30.057 
07:35	30.7	30.7	30.7	74	23.4	0	2	248	0.00	30.060 
07:40	30.6	30.6	30.6	74	23.3	0	1	248	0.00	30.060 
07:45	30.6	30.6	30.6	74	23.3	0	1	248	0.00	30.061 
07:50	30.7	30.7	30.7	74	23.4	0	1	248	0.00	30.061 
07:55	30.7	30.7	30.7	75	23.7	0	1	248	0.00	30.062 
08:00	30.9	30.9	30.9	75	23.9	0	3	248	0.00	30.066 
08:05	31.0	31.0	31.0	74	23.7	0	3	248	0.00	30.067 
08:10	31.2	31.2	31.2	73	23.6	1	3	248	0.00	30.066 
08:15	31.3	31.3	31.3	73	23.7	1	3	248	0.00	30.066 
08:20	31.3	31.3	31.3	73	23.7	1	4	248	0.00	30.068 
08:25	31.5	31.5	31.5	73	23.9	0	1	248	0.00	30.069 
08:30	31.8	31.8	31.8	73	24.1	0	3	248	0.00	30.069 
08:35	31.9	31.9	31.9	72	23.9	1	4	248	0.00	30.070 
08:40	32.1	32.1	32.1	72	24.1	0	2	248	0.00	30.072 
08:45	32.2	32.2	32.2	72	24.2	1	3	248	0.00	30.072 
08:50	32.4	32.4	32.4	72	24.4	0	1	248	0.00	30.073 
08:55	32.7	32.7	32.7	71	24.4	0	1	292	0.00	30.075 
09:00	32.9	32.9	32.9	70	24.2	0	1	225	0.00	30.080 
09:05	33.1	33.1	33.1	70	24.4	1	3	248	0.00	30.082 
09:10	33.1	33.1	33.1	69	24.1	0	1	248	0.00	30.080 
09:15	33.2	33.2	33.2	69	24.2	0	2	248	0.00	30.082 
09:20	33.5	33.5	33.5	70	24.8	0	2	248	0.00	30.084 
09:25	34.0	34.0	34.0	69	24.9	0	2	248	0.00	30.080 
09:30	34.1	34.1	34.1	68	24.7	0	1	248	0.00	30.078 
09:35	34.4	34.4	34.4	68	24.9	0	2	248	0.00	30.078 
09:40	34.7	34.7	34.7	67	24.9	0	1	248	0.00	30.080 
09:45	34.9	34.9	34.9	66	24.7	1	3	248	0.00	30.083 
09:50	34.9	34.9	34.9	66	24.7	1	3	248	0.00	30.084 
09:55	35.0	35.0	35.0	65	24.4	1	5	248	0.00	30.084 
10:00	35.3	35.3	35.3	66	25.1	1	2	270	0.00	30.085 
10:05	35.8	35.8	35.8	66	25.6	1	3	270	0.00	30.084 
10:10	36.3	36.3	36.3	65	25.7	1	4	270	0.00	30.082 
10:15	36.5	36.5	36.5	62	24.7	2	7	248	0.00	30.082 
10:20	36.6	36.6	36.6	63	25.2	1	4	248	0.00	30.071 
10:25	37.0	37.0	37.0	64	26.0	1	3	270	0.00	30.069 
10:30	37.0	37.0	37.0	60	24.4	1	4	248	0.00	30.069 
10:35	37.2	37.2	37.2	62	25.4	1	4	248	0.00	30.069 
10:40	37.8	37.8	37.8	61	25.6	1	4	225	0.00	30.067 
10:45	38.0	38.0	38.0	59	25.0	1	3	315	0.00	30.066 
10:50	37.8	37.8	37.8	58	24.4	2	4	270	0.00	30.065 
10:55	37.9	37.9	37.9	60	25.3	2	4	248	0.00	30.068 
11:00	37.9	37.9	37.9	60	25.3	1	3	270	0.00	30.068 
11:05	37.8	37.8	37.8	57	24.0	1	4	248	0.00	30.068 
11:10	37.3	37.3	37.3	58	23.9	1	4	315	0.00	30.065 
11:15	37.0	37.0	37.0	59	24.0	1	4	248	0.00	30.060 
11:20	36.8	36.8	36.8	61	24.6	1	4	248	0.00	30.058 
11:25	36.8	36.8	36.8	59	23.8	1	3	248	0.00	30.054 
11:30	36.8	36.8	36.8	59	23.8	0	1	248	0.00	30.041 
11:35	37.0	37.0	37.0	61	24.8	0	1	248	0.00	30.038 
11:40	37.5	37.5	37.5	58	24.1	1	4	248	0.00	30.038 
11:45	37.8	37.8	37.8	59	24.8	1	6	248	0.00	30.036 
11:50	38.0	38.0	38.0	57	24.1	1	4	248	0.00	30.027 
11:55	38.0	38.0	38.0	57	24.1	0	1	248	0.00	30.022 
12:00	38.3	38.3	38.3	58	24.8	0	2	248	0.00	30.020 
12:05	38.6	38.6	38.6	55	23.8	1	5	248	0.00	30.017 
12:10	38.6	38.6	38.6	55	23.8	1	4	248	0.00	30.018 
12:15	38.8	38.8	38.8	57	24.9	1	3	248	0.00	30.014 
12:20	38.8	38.8	38.8	56	24.5	2	5	248	0.00	30.014 
12:25	38.8	38.8	38.8	56	24.5	1	4	248	0.00	30.016 
12:30	38.9	38.9	38.9	57	25.0	2	6	248	0.00	30.016 
12:35	39.1	39.1	39.1	55	24.3	1	4	248	0.00	30.014 
12:40	38.8	38.8	38.8	54	23.6	1	3	248	0.00	30.014 
12:45	38.8	38.8	38.8	54	23.6	2	6	248	0.00	30.015 
12:50	38.6	38.6	38.6	55	23.8	2	7	248	0.00	30.015 
12:55	38.6	38.6	38.6	57	24.7	2	6	248	0.00	30.005 
13:00	38.3	38.3	38.3	55	23.6	3	7	270	0.00	30.006 
13:05	38.3	38.3	38.3	56	24.0	2	6	248	0.00	30.008 
13:10	38.5	38.5	38.5	56	24.2	2	5	248	0.00	30.004 
13:15	38.5	38.5	38.5	55	23.8	2	5	270	0.00	30.005 
13:20	38.3	38.3	38.3	55	23.6	2	6	248	0.00	30.009 
13:25	38.5	38.5	38.5	57	24.6	1	3	248	0.00	30.011 
13:30	38.5	38.5	38.5	56	24.2	2	7	270	0.00	30.008 
13:35	38.5	38.5	38.5	56	24.2	1	5	248	0.00	30.009 
13:40	38.2	38.2	38.2	55	23.5	2	7	248	0.00	30.008 
13:45	38.0	38.0	38.0	56	23.7	2	5	248	0.00	30.007 
13:50	38.0	38.0	38.0	55	23.3	2	6	248	0.00	30.003 
13:55	38.2	38.2	38.2	55	23.5	1	4	270	0.00	30.006 
14:00	38.0	38.0	38.0	56	23.7	2	5	270	0.00	30.008 
14:05	38.0	38.0	38.0	56	23.7	1	4	248	0.00	30.010 
14:10	37.8	37.8	37.8	55	23.1	2	4	270	0.00	30.011 
14:15	37.8	37.8	37.8	55	23.1	2	5	248	0.00	30.007 
14:20	37.8	37.8	37.8	54	22.7	1	6	248	0.00	30.006 
14:25	37.8	37.8	37.8	55	23.1	1	4	248	0.00	30.005 
14:30	37.6	37.6	37.6	54	22.5	1	3	248	0.00	30.002 
14:35	37.5	37.5	37.5	55	22.8	1	5	248	0.00	29.998 
14:40	37.6	37.6	37.6	55	22.9	1	5	248	0.00	29.999 
14:45	37.8	37.8	37.8	55	23.1	1	3	248	0.00	29.994 
14:50	37.8	37.8	37.8	54	22.7	1	4	248	0.00	29.993 
14:55	37.6	37.6	37.6	55	22.9	1	2	248	0.00	29.991 
15:00	37.5	37.5	37.5	54	22.4	2	5	248	0.00	29.991 
15:05	37.6	37.6	37.6	54	22.5	1	3	248	0.00	29.991 
15:10	38.0	38.0	38.0	55	23.3	1	3	248	0.00	29.991 
15:15	38.2	38.2	38.2	54	23.0	1	6	248	0.00	29.990 
15:20	38.3	38.3	38.3	51	21.8	2	5	248	0.00	29.990 
15:25	38.0	38.0	38.0	54	22.9	1	3	248	0.00	29.990 
15:30	37.8	37.8	37.8	54	22.7	1	2	270	0.00	29.989 
15:35	37.6	37.6	37.6	55	22.9	1	4	248	0.00	29.990 
15:40	37.5	37.5	37.5	55	22.8	1	4	248	0.00	29.988 
15:45	37.5	37.5	37.5	56	23.2	1	4	270	0.00	29.988 
15:50	37.5	37.5	37.5	55	22.8	1	4	248	0.00	29.985 
15:55	37.5	37.5	37.5	56	23.2	1	3	248	0.00	29.982 
16:00	37.3	37.3	37.3	56	23.1	0	1	270	0.00	29.985 
16:05	37.3	37.3	37.3	56	23.1	0	2	270	0.00	29.981 
16:10	37.5	37.5	37.5	57	23.7	0	2	292	0.00	29.982 
16:15	37.5	37.5	37.5	56	23.2	1	4	248	0.00	29.980 
16:20	37.5	37.5	37.5	56	23.2	1	4	248	0.00	29.977 
16:25	37.5	37.5	37.5	57	23.7	1	2	270	0.00	29.976 
16:30	37.5	37.5	37.5	58	24.1	0	3	248	0.00	29.975 
16:35	37.3	37.3	37.3	57	23.5	1	3	248	0.00	29.976 
16:40	37.3	37.3	37.3	58	23.9	0	2	248	0.00	29.974 
16:45	37.2	37.2	37.2	58	23.8	0	2	248	0.00	29.975 
16:50	37.2	37.2	37.2	58	23.8	1	4	270	0.00	29.972 
16:55	37.2	37.2	37.2	58	23.8	0	2	248	0.00	29.970 
17:00	37.0	37.0	37.0	58	23.6	1	4	248	0.00	29.963 
17:05	37.0	37.0	37.0	58	23.6	0	2	248	0.00	29.961 
17:10	36.9	36.9	36.9	58	23.5	1	4	248	0.00	29.959 
17:15	36.9	36.9	36.9	59	23.9	0	1	248	0.00	29.952 
17:20	36.8	36.8	36.8	58	23.4	0	2	248	0.00	29.947 
17:25	36.8	36.8	36.8	59	23.8	0	1	248	0.00	29.945 
17:30	36.6	36.6	36.6	58	23.2	0	3	248	0.00	29.945 
17:35	36.5	36.5	36.5	60	24.0	0	1	248	0.00	29.943 
17:40	36.5	36.5	36.5	60	24.0	0	2	248	0.00	29.939 
17:45	36.3	36.3	36.3	61	24.2	0	1	248	0.00	29.943 
17:50	36.3	36.3	36.3	62	24.5	0	1	248	0.00	29.942 
17:55	36.2	36.2	36.2	62	24.5	0	2	248	0.00	29.943 
18:00	36.2	36.2	36.2	63	24.8	0	1	248	0.00	29.940 
18:05	36.2	36.2	36.2	64	25.2	0	3	248	0.00	29.937 
18:10	36.2	36.2	36.2	63	24.8	0	1	248	0.00	29.933 
18:15	36.0	36.0	36.0	63	24.6	0	1	248	0.00	29.932 
18:20	36.0	36.0	36.0	64	25.0	0	0	---	0.00	29.932 
18:25	36.0	36.0	36.0	65	25.4	0	1	248	0.00	29.932 
18:30	35.9	35.9	35.9	64	24.9	0	0	---	0.00	29.932 
18:35	35.9	35.9	35.9	65	25.3	0	1	248	0.00	29.933 
18:40	35.9	35.9	35.9	65	25.3	0	1	248	0.00	29.933 
18:45	35.9	35.9	35.9	66	25.7	0	1	248	0.00	29.932 
18:50	35.9	35.9	35.9	66	25.7	0	1	248	0.00	29.932 
18:55	35.9	35.9	35.9	66	25.7	0	0	---	0.00	29.934 
19:00	35.9	35.9	35.9	67	26.0	0	1	248	0.00	29.936 
19:05	35.8	35.8	35.8	67	25.9	0	1	248	0.00	29.935 
19:10	35.8	35.8	35.8	67	25.9	0	0	---	0.00	29.936 
19:15	35.8	35.8	35.8	67	25.9	0	0	---	0.00	29.938 
19:20	35.6	35.6	35.6	67	25.7	0	1	248	0.00	29.937 
19:25	35.6	35.6	35.6	68	26.1	0	0	---	0.00	29.935 
19:30	35.6	35.6	35.6	68	26.1	0	0	---	0.00	29.936 
19:35	35.6	35.6	35.6	68	26.1	0	0	---	0.00	29.938 
19:40	35.6	35.6	35.6	68	26.1	0	0	---	0.00	29.941 
19:45	35.6	35.6	35.6	68	26.1	0	0	---	0.00	29.938 
19:50	35.6	35.6	35.6	68	26.1	0	2	248	0.00	29.935 
19:55	35.8	35.8	35.8	68	26.3	0	1	248	0.00	29.933 
20:00	35.8	35.8	35.8	68	26.3	0	1	248	0.00	29.932 
20:05	35.8	35.8	35.8	68	26.3	0	1	248	0.00	29.930 
20:10	35.8	35.8	35.8	69	26.6	0	1	248	0.00	29.929 
20:15	35.8	35.8	35.8	69	26.6	0	2	248	0.00	29.930 
20:20	35.6	35.6	35.6	69	26.4	0	1	248	0.00	29.929 
20:25	35.6	35.6	35.6	69	26.4	0	1	248	0.00	29.927 
20:30	35.5	35.5	35.5	70	26.7	0	2	248	0.00	29.925 
20:35	35.5	35.5	35.5	70	26.7	0	1	225	0.00	29.928 
20:40	35.3	35.3	35.3	70	26.5	0	1	225	0.00	29.927 
20:45	35.2	35.2	35.2	70	26.4	0	1	225	0.00	29.925 
20:50	35.2	35.2	35.2	71	26.8	0	1	225	0.00	29.925 
20:55	35.0	35.0	35.0	71	26.6	0	0	---	0.00	29.929 
21:00	35.0	35.0	35.0	71	26.6	0	1	225	0.00	29.931 
21:05	35.0	35.0	35.0	71	26.6	0	0	---	0.00	29.931 
21:10	34.9	34.9	34.9	71	26.5	0	0	---	0.00	29.930 
21:15	34.7	34.7	34.7	71	26.3	0	0	---	0.00	29.931 
21:20	34.6	34.6	34.6	72	26.5	0	0	---	0.00	29.936 
21:25	34.6	34.6	34.6	72	26.5	0	0	---	0.00	29.943 
21:30	34.4	34.4	34.4	73	26.7	0	0	---	0.00	29.948 
21:35	34.6	34.6	34.6	73	26.9	0	0	---	0.00	29.951 
21:40	34.7	34.7	34.7	74	27.3	0	0	---	0.00	29.956 
21:45	34.7	34.7	34.7	73	26.9	0	0	---	0.00	29.957 
21:50	34.7	34.7	34.7	73	26.9	0	0	---	0.00	29.955 
21:55	34.7	34.7	34.7	74	27.3	0	0	---	0.00	29.960 
22:00	34.7	34.7	34.7	74	27.3	0	0	---	0.00	29.958 
22:05	34.9	34.9	34.9	75	27.8	0	0	---	0.00	29.957 
22:10	34.9	34.9	34.9	74	27.5	0	0	---	0.00	29.958 
22:15	34.9	34.9	34.9	74	27.5	0	0	---	0.00	29.959 
22:20	34.9	34.9	34.9	74	27.5	0	0	---	0.00	29.961 
22:25	35.0	35.0	35.0	74	27.6	0	0	---	0.00	29.962 
22:30	35.0	35.0	35.0	75	27.9	0	0	---	0.00	29.961 
22:35	34.9	34.9	34.9	75	27.8	0	0	---	0.00	29.962 
22:40	34.9	34.9	34.9	75	27.8	0	0	---	0.00	29.961 
22:45	34.7	34.7	34.7	76	27.9	0	0	---	0.00	29.965 
22:50	34.6	34.6	34.6	76	27.8	0	0	---	0.00	29.965 
22:55	34.4	34.4	34.4	76	27.6	0	0	---	0.00	29.958 
23:00	34.3	34.3	34.3	77	27.9	0	0	---	0.00	29.954 
23:05	34.1	34.1	34.1	77	27.7	0	0	---	0.00	29.953 
23:10	34.1	34.1	34.1	77	27.7	0	0	---	0.00	29.949 
23:15	34.0	34.0	34.0	78	27.9	0	0	---	0.00	29.947 
23:20	33.8	33.8	33.8	78	27.7	0	0	---	0.00	29.943 
23:25	33.8	33.8	33.8	78	27.7	0	1	225	0.00	29.941 
23:30	33.8	33.8	33.8	78	27.7	0	0	---	0.00	29.941 
23:35	33.8	33.8	33.8	79	28.0	0	1	225	0.00	29.940 
23:40	33.8	33.8	33.8	79	28.0	0	1	225	0.00	29.940 
23:45	33.8	33.8	33.8	79	28.0	0	1	225	0.00	29.940 
23:50	34.0	34.0	34.0	80	28.5	0	1	225	0.00	29.940 
23:55	34.1	34.1	34.1	79	28.3	0	1	225	0.00	29.942 

CoCoRaHS
IN-AL-39
A2 Web Hosting
Creative Commons License
GoDaddy
Look for:

loaded 2017-10-16 20:15:43 • last modified 2010-11-18 10:43:29
Privacy PolicyDisclaimer
• wx.awcolley.com is powered by PmWiki v.2002016 •
• all content (unless otherwise noted) © 2017 A W Colley